sensor_id;sensor_type;location;lat;lon;timestamp;P1;durP1;ratioP1;P2;durP2;ratioP2
69053;SDS011;56125;52.242;4.756;2023-05-08T00:01:52;8.38;;;5.85;;
69053;SDS011;56125;52.242;4.756;2023-05-08T00:06:53;7.10;;;5.55;;
69053;SDS011;56125;52.242;4.756;2023-05-08T00:11:54;8.23;;;5.38;;
69053;SDS011;56125;52.242;4.756;2023-05-08T00:16:55;6.63;;;4.65;;
69053;SDS011;56125;52.242;4.756;2023-05-08T00:21:56;5.78;;;4.47;;
69053;SDS011;56125;52.242;4.756;2023-05-08T00:26:57;7.32;;;5.03;;
69053;SDS011;56125;52.242;4.756;2023-05-08T00:31:58;5.65;;;4.38;;
69053;SDS011;56125;52.242;4.756;2023-05-08T00:36:59;6.43;;;4.50;;
69053;SDS011;56125;52.242;4.756;2023-05-08T00:42:00;6.35;;;4.30;;
69053;SDS011;56125;52.242;4.756;2023-05-08T00:47:01;6.40;;;4.25;;
69053;SDS011;56125;52.242;4.756;2023-05-08T00:52:03;4.85;;;4.03;;
69053;SDS011;56125;52.242;4.756;2023-05-08T00:57:08;4.68;;;4.00;;
69053;SDS011;56125;52.242;4.756;2023-05-08T01:02:09;4.68;;;3.75;;
69053;SDS011;56125;52.242;4.756;2023-05-08T01:07:10;4.43;;;3.70;;
69053;SDS011;56125;52.242;4.756;2023-05-08T01:12:17;4.53;;;3.53;;
69053;SDS011;56125;52.242;4.756;2023-05-08T01:17:42;4.05;;;3.33;;
69053;SDS011;56125;52.242;4.756;2023-05-08T01:28:28;3.88;;;3.38;;
69053;SDS011;56125;52.242;4.756;2023-05-08T01:34:04;3.92;;;3.35;;
69053;SDS011;56125;52.242;4.756;2023-05-08T01:44:46;4.22;;;3.25;;
69053;SDS011;56125;52.242;4.756;2023-05-08T01:50:30;5.13;;;3.92;;
69053;SDS011;56125;52.242;4.756;2023-05-08T01:55:25;4.20;;;3.60;;
69053;SDS011;56125;52.242;4.756;2023-05-08T02:00:30;4.38;;;3.72;;
69053;SDS011;56125;52.242;4.756;2023-05-08T02:05:31;5.45;;;4.53;;
69053;SDS011;56125;52.242;4.756;2023-05-08T02:10:36;7.13;;;5.20;;
69053;SDS011;56125;52.242;4.756;2023-05-08T02:15:38;9.02;;;6.05;;
69053;SDS011;56125;52.242;4.756;2023-05-08T02:20:41;12.52;;;7.65;;
69053;SDS011;56125;52.242;4.756;2023-05-08T02:25:42;14.57;;;8.98;;
69053;SDS011;56125;52.242;4.756;2023-05-08T02:30:45;16.65;;;10.00;;
69053;SDS011;56125;52.242;4.756;2023-05-08T02:35:48;16.48;;;9.75;;
69053;SDS011;56125;52.242;4.756;2023-05-08T02:40:54;18.30;;;11.20;;
69053;SDS011;56125;52.242;4.756;2023-05-08T02:46:05;18.65;;;11.40;;
69053;SDS011;56125;52.242;4.756;2023-05-08T02:51:19;23.35;;;12.43;;
69053;SDS011;56125;52.242;4.756;2023-05-08T02:56:29;20.25;;;12.82;;
69053;SDS011;56125;52.242;4.756;2023-05-08T03:01:47;24.23;;;12.57;;
69053;SDS011;56125;52.242;4.756;2023-05-08T03:06:51;26.38;;;13.20;;
69053;SDS011;56125;52.242;4.756;2023-05-08T03:11:58;20.45;;;11.80;;
69053;SDS011;56125;52.242;4.756;2023-05-08T03:17:03;22.05;;;12.73;;
69053;SDS011;56125;52.242;4.756;2023-05-08T03:22:07;24.70;;;12.82;;
69053;SDS011;56125;52.242;4.756;2023-05-08T03:27:09;21.42;;;12.20;;
69053;SDS011;56125;52.242;4.756;2023-05-08T03:32:11;21.13;;;13.07;;
69053;SDS011;56125;52.242;4.756;2023-05-08T03:37:14;21.50;;;12.70;;
69053;SDS011;56125;52.242;4.756;2023-05-08T03:42:15;21.20;;;12.48;;
69053;SDS011;56125;52.242;4.756;2023-05-08T03:47:20;21.92;;;13.32;;
69053;SDS011;56125;52.242;4.756;2023-05-08T03:52:21;22.10;;;13.25;;
69053;SDS011;56125;52.242;4.756;2023-05-08T03:57:24;27.08;;;14.00;;
69053;SDS011;56125;52.242;4.756;2023-05-08T04:07:46;27.17;;;14.57;;
69053;SDS011;56125;52.242;4.756;2023-05-08T04:13:03;29.25;;;15.48;;
69053;SDS011;56125;52.242;4.756;2023-05-08T04:18:21;30.02;;;15.20;;
69053;SDS011;56125;52.242;4.756;2023-05-08T04:23:24;32.75;;;16.05;;
69053;SDS011;56125;52.242;4.756;2023-05-08T04:28:28;31.63;;;15.02;;
69053;SDS011;56125;52.242;4.756;2023-05-08T04:33:29;32.97;;;16.08;;
69053;SDS011;56125;52.242;4.756;2023-05-08T04:38:34;31.92;;;15.85;;
69053;SDS011;56125;52.242;4.756;2023-05-08T04:43:36;33.45;;;16.35;;
69053;SDS011;56125;52.242;4.756;2023-05-08T04:48:37;33.83;;;16.70;;
69053;SDS011;56125;52.242;4.756;2023-05-08T04:53:38;34.25;;;15.93;;
69053;SDS011;56125;52.242;4.756;2023-05-08T04:58:39;34.00;;;16.23;;
69053;SDS011;56125;52.242;4.756;2023-05-08T05:03:40;29.45;;;14.35;;
69053;SDS011;56125;52.242;4.756;2023-05-08T05:08:41;33.80;;;16.50;;
69053;SDS011;56125;52.242;4.756;2023-05-08T05:13:42;28.65;;;15.18;;
69053;SDS011;56125;52.242;4.756;2023-05-08T05:18:43;35.00;;;15.68;;
69053;SDS011;56125;52.242;4.756;2023-05-08T05:23:44;31.50;;;15.43;;
69053;SDS011;56125;52.242;4.756;2023-05-08T05:28:45;29.85;;;14.75;;
69053;SDS011;56125;52.242;4.756;2023-05-08T05:33:47;32.45;;;14.88;;
69053;SDS011;56125;52.242;4.756;2023-05-08T05:38:48;32.53;;;14.70;;
69053;SDS011;56125;52.242;4.756;2023-05-08T05:43:49;30.40;;;14.65;;
69053;SDS011;56125;52.242;4.756;2023-05-08T05:48:50;30.63;;;14.85;;
69053;SDS011;56125;52.242;4.756;2023-05-08T05:53:51;35.30;;;14.88;;
69053;SDS011;56125;52.242;4.756;2023-05-08T05:58:52;30.33;;;14.57;;
69053;SDS011;56125;52.242;4.756;2023-05-08T06:03:53;26.27;;;13.55;;
69053;SDS011;56125;52.242;4.756;2023-05-08T06:08:54;24.73;;;12.30;;
69053;SDS011;56125;52.242;4.756;2023-05-08T06:13:56;24.40;;;12.40;;
69053;SDS011;56125;52.242;4.756;2023-05-08T06:18:57;21.95;;;12.25;;
69053;SDS011;56125;52.242;4.756;2023-05-08T06:23:58;23.65;;;12.57;;
69053;SDS011;56125;52.242;4.756;2023-05-08T06:28:59;23.38;;;12.07;;
69053;SDS011;56125;52.242;4.756;2023-05-08T06:34:00;23.95;;;12.30;;
69053;SDS011;56125;52.242;4.756;2023-05-08T06:39:03;26.27;;;12.07;;
69053;SDS011;56125;52.242;4.756;2023-05-08T06:44:05;21.27;;;11.60;;
69053;SDS011;56125;52.242;4.756;2023-05-08T06:49:06;26.60;;;11.73;;
69053;SDS011;56125;52.242;4.756;2023-05-08T06:54:07;24.17;;;12.10;;
69053;SDS011;56125;52.242;4.756;2023-05-08T06:59:08;23.95;;;11.23;;
69053;SDS011;56125;52.242;4.756;2023-05-08T07:04:09;23.27;;;12.00;;
69053;SDS011;56125;52.242;4.756;2023-05-08T07:09:10;24.38;;;11.85;;
69053;SDS011;56125;52.242;4.756;2023-05-08T07:14:11;24.02;;;11.20;;
69053;SDS011;56125;52.242;4.756;2023-05-08T07:19:12;22.52;;;10.85;;
69053;SDS011;56125;52.242;4.756;2023-05-08T07:24:13;22.80;;;10.23;;
69053;SDS011;56125;52.242;4.756;2023-05-08T07:29:14;22.42;;;10.38;;
69053;SDS011;56125;52.242;4.756;2023-05-08T07:34:16;25.77;;;10.90;;
69053;SDS011;56125;52.242;4.756;2023-05-08T07:39:17;22.35;;;10.05;;
69053;SDS011;56125;52.242;4.756;2023-05-08T07:44:18;24.77;;;11.05;;
69053;SDS011;56125;52.242;4.756;2023-05-08T07:49:19;24.48;;;10.35;;
69053;SDS011;56125;52.242;4.756;2023-05-08T07:54:20;23.75;;;10.73;;
69053;SDS011;56125;52.242;4.756;2023-05-08T07:59:21;21.85;;;10.45;;
69053;SDS011;56125;52.242;4.756;2023-05-08T08:04:22;21.20;;;10.13;;
69053;SDS011;56125;52.242;4.756;2023-05-08T08:09:23;23.85;;;10.05;;
69053;SDS011;56125;52.242;4.756;2023-05-08T08:14:25;23.65;;;10.13;;
69053;SDS011;56125;52.242;4.756;2023-05-08T08:19:26;22.52;;;10.00;;
69053;SDS011;56125;52.242;4.756;2023-05-08T08:24:27;21.40;;;9.85;;
69053;SDS011;56125;52.242;4.756;2023-05-08T08:29:29;20.42;;;9.70;;
69053;SDS011;56125;52.242;4.756;2023-05-08T08:34:34;23.10;;;10.55;;
69053;SDS011;56125;52.242;4.756;2023-05-08T08:39:35;21.77;;;10.27;;
69053;SDS011;56125;52.242;4.756;2023-05-08T08:44:36;24.05;;;10.50;;
69053;SDS011;56125;52.242;4.756;2023-05-08T08:49:40;25.17;;;11.10;;
69053;SDS011;56125;52.242;4.756;2023-05-08T08:54:47;18.27;;;10.35;;
69053;SDS011;56125;52.242;4.756;2023-05-08T08:59:49;22.17;;;10.40;;
69053;SDS011;56125;52.242;4.756;2023-05-08T09:04:52;22.92;;;11.35;;
69053;SDS011;56125;52.242;4.756;2023-05-08T09:09:53;24.23;;;11.77;;
69053;SDS011;56125;52.242;4.756;2023-05-08T09:14:55;23.23;;;11.55;;
69053;SDS011;56125;52.242;4.756;2023-05-08T09:19:56;23.20;;;11.88;;
69053;SDS011;56125;52.242;4.756;2023-05-08T09:24:58;21.48;;;11.63;;
69053;SDS011;56125;52.242;4.756;2023-05-08T09:30:01;23.55;;;11.15;;
69053;SDS011;56125;52.242;4.756;2023-05-08T09:35:06;21.70;;;11.07;;
69053;SDS011;56125;52.242;4.756;2023-05-08T09:45:29;21.25;;;10.95;;
69053;SDS011;56125;52.242;4.756;2023-05-08T09:50:32;19.40;;;11.00;;
69053;SDS011;56125;52.242;4.756;2023-05-08T09:55:45;20.52;;;10.82;;
69053;SDS011;56125;52.242;4.756;2023-05-08T10:00:47;19.77;;;9.75;;
69053;SDS011;56125;52.242;4.756;2023-05-08T10:05:48;19.92;;;10.45;;
69053;SDS011;56125;52.242;4.756;2023-05-08T10:10:50;18.67;;;9.95;;
69053;SDS011;56125;52.242;4.756;2023-05-08T10:15:52;17.42;;;9.57;;
69053;SDS011;56125;52.242;4.756;2023-05-08T10:20:54;18.77;;;9.98;;
69053;SDS011;56125;52.242;4.756;2023-05-08T10:25:58;18.83;;;10.13;;
69053;SDS011;56125;52.242;4.756;2023-05-08T10:31:07;19.00;;;10.30;;
69053;SDS011;56125;52.242;4.756;2023-05-08T10:36:13;16.70;;;9.27;;
69053;SDS011;56125;52.242;4.756;2023-05-08T10:41:15;15.38;;;9.13;;
69053;SDS011;56125;52.242;4.756;2023-05-08T10:46:24;18.25;;;9.93;;
69053;SDS011;56125;52.242;4.756;2023-05-08T10:51:41;16.98;;;8.95;;
69053;SDS011;56125;52.242;4.756;2023-05-08T10:57:05;15.98;;;9.40;;
69053;SDS011;56125;52.242;4.756;2023-05-08T11:02:11;15.27;;;8.70;;
69053;SDS011;56125;52.242;4.756;2023-05-08T11:07:13;13.95;;;8.95;;
69053;SDS011;56125;52.242;4.756;2023-05-08T11:12:17;14.45;;;8.63;;
69053;SDS011;56125;52.242;4.756;2023-05-08T11:17:22;14.70;;;8.70;;
69053;SDS011;56125;52.242;4.756;2023-05-08T11:22:31;13.85;;;9.18;;
69053;SDS011;56125;52.242;4.756;2023-05-08T11:27:40;11.90;;;7.30;;
69053;SDS011;56125;52.242;4.756;2023-05-08T11:38:10;15.93;;;7.95;;
69053;SDS011;56125;52.242;4.756;2023-05-08T11:43:25;13.35;;;7.82;;
69053;SDS011;56125;52.242;4.756;2023-05-08T11:48:33;16.55;;;8.95;;
69053;SDS011;56125;52.242;4.756;2023-05-08T11:53:35;14.38;;;7.85;;
69053;SDS011;56125;52.242;4.756;2023-05-08T11:58:37;15.85;;;8.27;;
69053;SDS011;56125;52.242;4.756;2023-05-08T12:03:38;16.70;;;8.55;;
69053;SDS011;56125;52.242;4.756;2023-05-08T12:08:39;18.33;;;8.90;;
69053;SDS011;56125;52.242;4.756;2023-05-08T12:13:40;14.82;;;8.27;;
69053;SDS011;56125;52.242;4.756;2023-05-08T12:18:41;15.75;;;8.95;;
69053;SDS011;56125;52.242;4.756;2023-05-08T12:23:43;17.48;;;9.65;;
69053;SDS011;56125;52.242;4.756;2023-05-08T12:28:44;15.45;;;8.90;;
69053;SDS011;56125;52.242;4.756;2023-05-08T12:33:47;16.55;;;9.30;;
69053;SDS011;56125;52.242;4.756;2023-05-08T12:38:49;15.40;;;9.27;;
69053;SDS011;56125;52.242;4.756;2023-05-08T12:43:50;16.55;;;9.60;;
69053;SDS011;56125;52.242;4.756;2023-05-08T12:48:58;17.17;;;9.70;;
69053;SDS011;56125;52.242;4.756;2023-05-08T12:54:01;15.80;;;9.75;;
69053;SDS011;56125;52.242;4.756;2023-05-08T12:59:02;15.68;;;9.40;;
69053;SDS011;56125;52.242;4.756;2023-05-08T13:04:05;16.55;;;9.77;;
69053;SDS011;56125;52.242;4.756;2023-05-08T13:09:06;15.30;;;9.93;;
69053;SDS011;56125;52.242;4.756;2023-05-08T13:14:07;15.27;;;9.73;;
69053;SDS011;56125;52.242;4.756;2023-05-08T13:19:09;17.60;;;10.60;;
69053;SDS011;56125;52.242;4.756;2023-05-08T13:24:10;15.88;;;10.20;;
69053;SDS011;56125;52.242;4.756;2023-05-08T13:29:11;15.95;;;10.02;;
69053;SDS011;56125;52.242;4.756;2023-05-08T13:34:12;15.65;;;9.57;;
69053;SDS011;56125;52.242;4.756;2023-05-08T13:39:13;17.25;;;10.80;;
69053;SDS011;56125;52.242;4.756;2023-05-08T13:44:14;15.82;;;10.15;;
69053;SDS011;56125;52.242;4.756;2023-05-08T13:49:15;16.50;;;10.32;;
69053;SDS011;56125;52.242;4.756;2023-05-08T13:54:18;21.27;;;10.48;;
69053;SDS011;56125;52.242;4.756;2023-05-08T13:59:19;17.27;;;10.70;;
69053;SDS011;56125;52.242;4.756;2023-05-08T14:04:20;17.85;;;11.25;;
69053;SDS011;56125;52.242;4.756;2023-05-08T14:09:22;17.02;;;9.93;;
69053;SDS011;56125;52.242;4.756;2023-05-08T14:14:23;17.15;;;10.10;;
69053;SDS011;56125;52.242;4.756;2023-05-08T14:19:24;18.48;;;10.13;;
69053;SDS011;56125;52.242;4.756;2023-05-08T14:24:25;16.63;;;9.88;;
69053;SDS011;56125;52.242;4.756;2023-05-08T14:29:26;17.60;;;10.60;;
69053;SDS011;56125;52.242;4.756;2023-05-08T14:34:27;19.15;;;10.00;;
69053;SDS011;56125;52.242;4.756;2023-05-08T14:39:28;17.95;;;9.52;;
69053;SDS011;56125;52.242;4.756;2023-05-08T14:44:29;20.08;;;9.93;;
69053;SDS011;56125;52.242;4.756;2023-05-08T14:49:30;19.33;;;10.30;;
69053;SDS011;56125;52.242;4.756;2023-05-08T14:54:31;18.30;;;9.35;;
69053;SDS011;56125;52.242;4.756;2023-05-08T14:59:32;20.02;;;10.50;;
69053;SDS011;56125;52.242;4.756;2023-05-08T15:04:33;17.13;;;9.57;;
69053;SDS011;56125;52.242;4.756;2023-05-08T15:09:40;20.17;;;10.27;;
69053;SDS011;56125;52.242;4.756;2023-05-08T15:14:41;16.63;;;9.38;;
69053;SDS011;56125;52.242;4.756;2023-05-08T15:19:42;20.95;;;9.93;;
69053;SDS011;56125;52.242;4.756;2023-05-08T15:24:45;17.92;;;9.10;;
69053;SDS011;56125;52.242;4.756;2023-05-08T15:29:46;16.52;;;9.70;;
69053;SDS011;56125;52.242;4.756;2023-05-08T15:34:49;20.73;;;10.05;;
69053;SDS011;56125;52.242;4.756;2023-05-08T15:39:50;20.77;;;9.82;;
69053;SDS011;56125;52.242;4.756;2023-05-08T15:44:55;18.30;;;10.15;;
69053;SDS011;56125;52.242;4.756;2023-05-08T15:49:58;19.17;;;9.88;;
69053;SDS011;56125;52.242;4.756;2023-05-08T15:55:00;20.50;;;9.57;;
69053;SDS011;56125;52.242;4.756;2023-05-08T16:00:01;19.67;;;8.93;;
69053;SDS011;56125;52.242;4.756;2023-05-08T16:05:02;19.27;;;9.98;;
69053;SDS011;56125;52.242;4.756;2023-05-08T16:10:03;19.55;;;9.48;;
69053;SDS011;56125;52.242;4.756;2023-05-08T16:15:04;18.25;;;8.75;;
69053;SDS011;56125;52.242;4.756;2023-05-08T16:20:08;19.90;;;9.30;;
69053;SDS011;56125;52.242;4.756;2023-05-08T16:25:09;17.05;;;9.48;;
69053;SDS011;56125;52.242;4.756;2023-05-08T16:30:11;16.17;;;8.45;;
69053;SDS011;56125;52.242;4.756;2023-05-08T16:35:12;19.27;;;8.98;;
69053;SDS011;56125;52.242;4.756;2023-05-08T16:40:13;18.15;;;9.25;;
69053;SDS011;56125;52.242;4.756;2023-05-08T16:45:14;17.45;;;8.63;;
69053;SDS011;56125;52.242;4.756;2023-05-08T16:50:15;14.88;;;8.70;;
69053;SDS011;56125;52.242;4.756;2023-05-08T16:55:16;16.38;;;8.63;;
69053;SDS011;56125;52.242;4.756;2023-05-08T17:00:17;15.93;;;8.65;;
69053;SDS011;56125;52.242;4.756;2023-05-08T17:05:19;15.70;;;7.95;;
69053;SDS011;56125;52.242;4.756;2023-05-08T17:10:20;16.63;;;8.00;;
69053;SDS011;56125;52.242;4.756;2023-05-08T17:15:21;13.57;;;7.43;;
69053;SDS011;56125;52.242;4.756;2023-05-08T17:20:22;13.27;;;7.63;;
69053;SDS011;56125;52.242;4.756;2023-05-08T17:25:23;12.15;;;7.03;;
69053;SDS011;56125;52.242;4.756;2023-05-08T17:30:24;13.90;;;7.53;;
69053;SDS011;56125;52.242;4.756;2023-05-08T17:35:25;13.70;;;7.43;;
69053;SDS011;56125;52.242;4.756;2023-05-08T17:40:26;11.95;;;7.00;;
69053;SDS011;56125;52.242;4.756;2023-05-08T17:45:28;12.43;;;7.40;;
69053;SDS011;56125;52.242;4.756;2023-05-08T17:50:29;12.45;;;7.22;;
69053;SDS011;56125;52.242;4.756;2023-05-08T17:55:30;13.80;;;7.32;;
69053;SDS011;56125;52.242;4.756;2023-05-08T18:00:31;15.05;;;7.13;;
69053;SDS011;56125;52.242;4.756;2023-05-08T18:05:32;14.70;;;7.68;;
69053;SDS011;56125;52.242;4.756;2023-05-08T18:10:33;13.77;;;7.70;;
69053;SDS011;56125;52.242;4.756;2023-05-08T18:15:38;15.30;;;7.70;;
69053;SDS011;56125;52.242;4.756;2023-05-08T18:20:39;12.93;;;7.00;;
69053;SDS011;56125;52.242;4.756;2023-05-08T18:25:40;14.20;;;7.78;;
69053;SDS011;56125;52.242;4.756;2023-05-08T18:30:41;12.32;;;6.85;;
69053;SDS011;56125;52.242;4.756;2023-05-08T18:35:42;14.77;;;7.72;;
69053;SDS011;56125;52.242;4.756;2023-05-08T18:40:44;14.40;;;7.95;;
69053;SDS011;56125;52.242;4.756;2023-05-08T18:45:45;14.63;;;7.75;;
69053;SDS011;56125;52.242;4.756;2023-05-08T18:50:46;13.80;;;7.32;;
69053;SDS011;56125;52.242;4.756;2023-05-08T18:55:47;16.70;;;8.02;;
69053;SDS011;56125;52.242;4.756;2023-05-08T19:00:48;14.85;;;7.90;;
69053;SDS011;56125;52.242;4.756;2023-05-08T19:05:49;13.75;;;7.63;;
69053;SDS011;56125;52.242;4.756;2023-05-08T19:10:53;14.38;;;7.35;;
69053;SDS011;56125;52.242;4.756;2023-05-08T19:15:54;13.93;;;7.53;;
69053;SDS011;56125;52.242;4.756;2023-05-08T19:20:55;14.00;;;8.27;;
69053;SDS011;56125;52.242;4.756;2023-05-08T19:25:56;12.88;;;7.50;;
69053;SDS011;56125;52.242;4.756;2023-05-08T19:30:57;12.60;;;7.80;;
69053;SDS011;56125;52.242;4.756;2023-05-08T19:35:58;12.80;;;7.40;;
69053;SDS011;56125;52.242;4.756;2023-05-08T19:40:59;13.65;;;7.82;;
69053;SDS011;56125;52.242;4.756;2023-05-08T19:46:00;11.90;;;6.30;;
69053;SDS011;56125;52.242;4.756;2023-05-08T19:51:05;14.30;;;7.35;;
69053;SDS011;56125;52.242;4.756;2023-05-08T19:56:07;10.13;;;6.55;;
69053;SDS011;56125;52.242;4.756;2023-05-08T20:01:08;10.45;;;6.32;;
69053;SDS011;56125;52.242;4.756;2023-05-08T20:06:09;13.20;;;7.10;;
69053;SDS011;56125;52.242;4.756;2023-05-08T20:11:10;10.35;;;6.25;;
69053;SDS011;56125;52.242;4.756;2023-05-08T20:16:11;10.20;;;5.72;;
69053;SDS011;56125;52.242;4.756;2023-05-08T20:21:12;11.35;;;5.85;;
69053;SDS011;56125;52.242;4.756;2023-05-08T20:26:13;11.40;;;5.65;;
69053;SDS011;56125;52.242;4.756;2023-05-08T20:31:14;8.43;;;4.97;;
69053;SDS011;56125;52.242;4.756;2023-05-08T20:36:16;8.75;;;5.30;;
69053;SDS011;56125;52.242;4.756;2023-05-08T20:41:17;7.88;;;4.90;;
69053;SDS011;56125;52.242;4.756;2023-05-08T20:46:18;10.50;;;5.10;;
69053;SDS011;56125;52.242;4.756;2023-05-08T20:51:19;7.93;;;4.00;;
69053;SDS011;56125;52.242;4.756;2023-05-08T20:56:20;7.25;;;4.10;;
69053;SDS011;56125;52.242;4.756;2023-05-08T21:01:21;7.70;;;4.50;;
69053;SDS011;56125;52.242;4.756;2023-05-08T21:06:22;7.38;;;4.25;;
69053;SDS011;56125;52.242;4.756;2023-05-08T21:11:23;10.25;;;4.22;;
69053;SDS011;56125;52.242;4.756;2023-05-08T21:16:24;6.95;;;3.95;;
69053;SDS011;56125;52.242;4.756;2023-05-08T21:21:25;8.30;;;3.92;;
69053;SDS011;56125;52.242;4.756;2023-05-08T21:26:26;6.70;;;3.83;;
69053;SDS011;56125;52.242;4.756;2023-05-08T21:31:27;5.47;;;3.72;;
69053;SDS011;56125;52.242;4.756;2023-05-08T21:36:28;6.00;;;3.70;;
69053;SDS011;56125;52.242;4.756;2023-05-08T21:41:29;6.45;;;3.58;;
69053;SDS011;56125;52.242;4.756;2023-05-08T21:46:32;5.88;;;3.17;;
69053;SDS011;56125;52.242;4.756;2023-05-08T21:51:33;6.90;;;3.65;;
69053;SDS011;56125;52.242;4.756;2023-05-08T21:56:34;5.65;;;3.55;;
69053;SDS011;56125;52.242;4.756;2023-05-08T22:01:35;5.80;;;3.65;;
69053;SDS011;56125;52.242;4.756;2023-05-08T22:06:36;7.55;;;3.60;;
69053;SDS011;56125;52.242;4.756;2023-05-08T22:11:37;7.05;;;3.80;;
69053;SDS011;56125;52.242;4.756;2023-05-08T22:16:38;5.50;;;3.50;;
69053;SDS011;56125;52.242;4.756;2023-05-08T22:21:41;9.75;;;4.32;;
69053;SDS011;56125;52.242;4.756;2023-05-08T22:26:42;8.02;;;4.05;;
69053;SDS011;56125;52.242;4.756;2023-05-08T22:31:44;6.75;;;3.60;;
69053;SDS011;56125;52.242;4.756;2023-05-08T22:36:46;7.65;;;3.38;;
69053;SDS011;56125;52.242;4.756;2023-05-08T22:41:47;7.68;;;3.85;;
69053;SDS011;56125;52.242;4.756;2023-05-08T22:46:48;8.27;;;3.67;;
69053;SDS011;56125;52.242;4.756;2023-05-08T22:51:49;7.00;;;3.72;;
69053;SDS011;56125;52.242;4.756;2023-05-08T22:56:50;6.85;;;3.70;;
69053;SDS011;56125;52.242;4.756;2023-05-08T23:01:52;7.25;;;4.00;;
69053;SDS011;56125;52.242;4.756;2023-05-08T23:06:53;8.60;;;4.32;;
69053;SDS011;56125;52.242;4.756;2023-05-08T23:11:54;10.23;;;4.78;;
69053;SDS011;56125;52.242;4.756;2023-05-08T23:16:55;10.00;;;3.97;;
69053;SDS011;56125;52.242;4.756;2023-05-08T23:21:56;9.52;;;4.38;;
69053;SDS011;56125;52.242;4.756;2023-05-08T23:26:57;6.90;;;4.32;;
69053;SDS011;56125;52.242;4.756;2023-05-08T23:31:58;7.70;;;4.00;;
69053;SDS011;56125;52.242;4.756;2023-05-08T23:36:59;8.60;;;4.75;;
69053;SDS011;56125;52.242;4.756;2023-05-08T23:42:01;9.88;;;4.43;;
69053;SDS011;56125;52.242;4.756;2023-05-08T23:47:02;8.60;;;4.47;;
69053;SDS011;56125;52.242;4.756;2023-05-08T23:52:04;9.30;;;5.20;;
69053;SDS011;56125;52.242;4.756;2023-05-08T23:57:05;9.77;;;5.03;;
